createdAt,value
2023-05-13T00:01:26.334Z,6.93
2023-05-13T00:03:53.932Z,6.67
2023-05-13T00:06:21.738Z,6.60
2023-05-13T00:08:49.540Z,6.40
2023-05-13T00:11:18.257Z,6.43
2023-05-13T00:13:45.511Z,7.00
2023-05-13T00:16:12.935Z,6.53
2023-05-13T00:18:40.442Z,6.80
2023-05-13T00:21:07.999Z,6.53
2023-05-13T00:23:35.325Z,6.22
2023-05-13T00:26:02.890Z,6.40
2023-05-13T00:28:31.615Z,6.30
2023-05-13T00:30:58.904Z,6.30
2023-05-13T00:33:26.709Z,6.00
2023-05-13T00:35:54.041Z,6.78
2023-05-13T00:38:21.226Z,5.82
2023-05-13T00:40:50.007Z,5.90
2023-05-13T00:43:17.263Z,5.95
2023-05-13T00:45:45.904Z,6.28
2023-05-13T00:48:13.535Z,6.28
2023-05-13T00:50:44.718Z,6.20
2023-05-13T00:53:12.955Z,6.00
2023-05-13T00:55:42.921Z,6.00
2023-05-13T00:58:11.597Z,6.05
2023-05-13T01:00:46.006Z,6.03
2023-05-13T01:03:24.492Z,5.25
2023-05-13T01:06:01.248Z,5.70
2023-05-13T01:08:34.400Z,5.82
2023-05-13T01:11:05.932Z,6.10
2023-05-13T01:13:38.272Z,5.63
2023-05-13T01:16:11.414Z,5.70
2023-05-13T01:18:43.696Z,6.23
2023-05-13T01:21:12.155Z,5.65
2023-05-13T01:23:40.795Z,5.72
2023-05-13T01:26:08.127Z,5.57
2023-05-13T01:28:37.119Z,6.00
2023-05-13T01:31:05.129Z,6.30
2023-05-13T01:33:33.101Z,6.15
2023-05-13T01:36:00.620Z,6.68
2023-05-13T01:38:28.793Z,6.13
2023-05-13T01:40:59.210Z,7.70
2023-05-13T01:43:26.505Z,6.90
2023-05-13T01:45:53.787Z,6.60
2023-05-13T01:48:21.053Z,7.03
2023-05-13T01:50:48.317Z,7.40
2023-05-13T01:53:15.622Z,7.40
2023-05-13T01:55:42.837Z,7.33
2023-05-13T01:58:11.345Z,6.82
2023-05-13T02:00:38.630Z,6.82
2023-05-13T02:03:05.967Z,6.82
2023-05-13T02:05:33.373Z,7.32
2023-05-13T02:08:00.589Z,6.37
2023-05-13T02:10:27.879Z,6.63
2023-05-13T02:12:55.091Z,6.53
2023-05-13T02:15:23.726Z,6.30
2023-05-13T02:17:51.432Z,6.55
2023-05-13T02:20:19.125Z,7.30
2023-05-13T02:22:46.639Z,6.82
2023-05-13T02:25:13.959Z,6.95
2023-05-13T02:27:41.152Z,6.85
2023-05-13T02:30:09.461Z,6.25
2023-05-13T02:32:38.107Z,6.43
2023-05-13T02:35:05.993Z,5.97
2023-05-13T02:37:33.134Z,6.28
2023-05-13T02:40:00.451Z,6.70
2023-05-13T02:42:27.880Z,5.75
2023-05-13T02:44:55.318Z,5.80
2023-05-13T02:47:22.843Z,6.03
2023-05-13T02:49:51.535Z,5.82
2023-05-13T02:52:18.719Z,6.15
2023-05-13T02:54:46.067Z,5.85
2023-05-13T02:57:13.440Z,5.77
2023-05-13T02:59:40.701Z,6.28
2023-05-13T03:02:08.008Z,6.00
2023-05-13T03:04:35.426Z,6.10
2023-05-13T03:07:04.240Z,5.75
2023-05-13T03:09:31.739Z,6.33
2023-05-13T03:11:58.992Z,6.07
2023-05-13T03:14:26.502Z,5.72
2023-05-13T03:16:53.779Z,5.85
2023-05-13T03:19:21.101Z,6.00
2023-05-13T03:21:48.638Z,5.60
2023-05-13T03:24:17.293Z,6.18
2023-05-13T03:26:44.573Z,6.32
2023-05-13T03:29:11.733Z,6.03
2023-05-13T03:31:39.036Z,5.47
2023-05-13T03:34:06.179Z,5.93
2023-05-13T03:36:33.694Z,6.07
2023-05-13T03:39:00.896Z,5.88
2023-05-13T03:41:29.496Z,6.32
2023-05-13T03:43:56.698Z,5.63
2023-05-13T03:46:24.056Z,6.00
2023-05-13T03:48:51.272Z,6.72
2023-05-13T03:51:18.672Z,6.95
2023-05-13T03:53:46.119Z,6.78
2023-05-13T03:56:13.668Z,6.70
2023-05-13T03:58:42.484Z,7.10
2023-05-13T04:01:09.981Z,7.05
2023-05-13T04:03:37.183Z,7.10
2023-05-13T04:06:04.698Z,8.00
2023-05-13T04:08:31.987Z,6.93
2023-05-13T04:10:59.153Z,6.63
2023-05-13T04:13:26.444Z,6.85
2023-05-13T04:15:55.568Z,7.43
2023-05-13T04:18:22.828Z,8.00
2023-05-13T04:20:50.064Z,7.60
2023-05-13T04:23:17.280Z,7.10
2023-05-13T04:25:51.319Z,7.13
2023-05-13T04:28:18.869Z,7.32
2023-05-13T04:30:45.992Z,7.40
2023-05-13T04:33:14.632Z,7.13
2023-05-13T04:35:41.917Z,7.20
2023-05-13T04:38:09.507Z,7.05
2023-05-13T04:40:36.797Z,7.57
2023-05-13T04:43:04.026Z,7.68
2023-05-13T04:45:31.920Z,7.63
2023-05-13T04:47:59.191Z,7.30
2023-05-13T04:50:27.974Z,7.60
2023-05-13T04:52:56.653Z,8.57
2023-05-13T04:55:25.993Z,7.80
2023-05-13T04:57:54.677Z,8.18
2023-05-13T05:00:22.085Z,7.90
2023-05-13T05:02:49.517Z,7.63
2023-05-13T05:05:18.394Z,8.23
2023-05-13T05:07:47.266Z,8.27
2023-05-13T05:10:15.866Z,8.68
2023-05-13T05:12:43.140Z,8.43
2023-05-13T05:15:17.246Z,7.72
2023-05-13T05:17:45.453Z,7.50
2023-05-13T05:20:13.669Z,8.15
2023-05-13T05:22:42.398Z,7.50
2023-05-13T05:25:12.287Z,8.33
2023-05-13T05:27:39.532Z,7.63
2023-05-13T05:30:09.367Z,8.23
2023-05-13T05:32:37.110Z,8.32
2023-05-13T05:35:04.957Z,8.57
2023-05-13T05:37:32.337Z,8.13
2023-05-13T05:39:59.965Z,7.97
2023-05-13T05:42:28.659Z,7.85
2023-05-13T05:44:55.948Z,8.20
2023-05-13T05:47:23.151Z,8.63
2023-05-13T05:49:50.458Z,7.93
2023-05-13T05:52:17.757Z,7.80
2023-05-13T05:54:45.275Z,7.38
2023-05-13T05:57:12.505Z,7.20
2023-05-13T05:59:41.162Z,7.95
2023-05-13T06:02:08.542Z,7.37
2023-05-13T06:04:36.031Z,7.40
2023-05-13T06:07:03.287Z,8.00
2023-05-13T06:09:30.791Z,8.00
2023-05-13T06:11:58.148Z,7.97
2023-05-13T06:14:25.379Z,6.77
2023-05-13T06:16:55.880Z,7.70
2023-05-13T06:19:23.248Z,7.13
2023-05-13T06:21:50.517Z,7.68
2023-05-13T06:24:17.717Z,8.27
2023-05-13T06:26:45.665Z,7.97
2023-05-13T06:29:12.866Z,7.93
2023-05-13T06:31:40.079Z,8.75
2023-05-13T06:34:08.734Z,8.20
2023-05-13T06:36:35.953Z,8.13
2023-05-13T06:39:03.574Z,8.00
2023-05-13T06:41:30.850Z,7.53
2023-05-13T06:43:58.634Z,7.50
2023-05-13T06:46:25.940Z,8.18
2023-05-13T06:48:53.839Z,8.00
2023-05-13T06:51:22.611Z,8.20
2023-05-13T06:53:49.897Z,8.75
2023-05-13T06:56:17.074Z,8.80
2023-05-13T06:58:44.415Z,8.60
2023-05-13T07:01:11.611Z,8.73
2023-05-13T07:03:39.113Z,8.70
2023-05-13T07:06:06.610Z,9.15
2023-05-13T07:08:35.249Z,9.65
2023-05-13T07:11:02.548Z,9.32
2023-05-13T07:13:31.061Z,9.23
2023-05-13T07:15:58.560Z,9.30
2023-05-13T07:18:25.834Z,9.30
2023-05-13T07:20:53.061Z,9.25
2023-05-13T07:23:20.311Z,9.80
2023-05-13T07:25:50.056Z,10.52
2023-05-13T07:28:17.255Z,9.73
2023-05-13T07:30:44.730Z,10.13
2023-05-13T07:33:12.129Z,9.85
2023-05-13T07:35:39.386Z,10.30
2023-05-13T07:38:09.042Z,9.80
2023-05-13T07:40:36.254Z,11.03
2023-05-13T07:43:05.968Z,11.52
2023-05-13T07:45:33.361Z,11.18
2023-05-13T07:48:00.593Z,10.52
2023-05-13T07:50:28.036Z,10.90
2023-05-13T07:52:55.253Z,10.43
2023-05-13T07:55:22.874Z,10.30
2023-05-13T07:57:50.438Z,11.57
2023-05-13T08:00:19.611Z,11.73
2023-05-13T08:02:46.901Z,11.73
2023-05-13T08:05:14.128Z,11.33
2023-05-13T08:07:41.342Z,11.15
2023-05-13T08:10:08.869Z,11.45
2023-05-13T08:12:36.140Z,11.20
2023-05-13T08:15:04.773Z,11.52
2023-05-13T08:17:33.570Z,11.53
2023-05-13T08:20:01.880Z,12.18
2023-05-13T08:22:29.171Z,12.25
2023-05-13T08:24:56.644Z,11.32
2023-05-13T08:27:23.969Z,12.32
2023-05-13T08:29:51.248Z,12.20
2023-05-13T08:32:19.274Z,12.30
2023-05-13T08:34:48.102Z,11.98
2023-05-13T08:37:15.339Z,12.20
2023-05-13T08:39:42.648Z,12.73
2023-05-13T08:42:11.539Z,12.40
2023-05-13T08:44:43.720Z,11.95
2023-05-13T08:47:16.688Z,11.75
2023-05-13T08:49:46.184Z,12.15
2023-05-13T08:52:14.926Z,12.45
2023-05-13T08:54:44.296Z,12.10
2023-05-13T08:57:11.543Z,13.75
2023-05-13T08:59:38.773Z,12.35
2023-05-13T09:02:06.191Z,11.88
2023-05-13T09:04:37.820Z,12.38
2023-05-13T09:07:05.870Z,11.70
2023-05-13T09:09:35.077Z,12.10
2023-05-13T09:12:02.612Z,12.73
2023-05-13T09:14:33.890Z,12.55
2023-05-13T09:17:01.930Z,12.07
2023-05-13T09:19:29.509Z,11.80
2023-05-13T09:21:57.685Z,13.63
2023-05-13T09:24:24.968Z,13.23
2023-05-13T09:26:53.674Z,12.18
2023-05-13T09:29:22.869Z,12.10
2023-05-13T09:31:51.926Z,12.50
2023-05-13T09:34:30.092Z,11.77
2023-05-13T09:37:02.311Z,11.32
2023-05-13T09:39:31.027Z,10.80
2023-05-13T09:42:04.349Z,11.07
2023-05-13T09:44:32.646Z,11.17
2023-05-13T09:47:02.453Z,11.18
2023-05-13T09:49:31.869Z,11.93
2023-05-13T09:51:59.103Z,10.85
2023-05-13T09:54:27.432Z,10.85
2023-05-13T09:57:01.510Z,10.97
2023-05-13T09:59:32.466Z,11.18
2023-05-13T10:02:01.278Z,11.63
2023-05-13T10:04:28.920Z,11.05
2023-05-13T10:06:57.157Z,11.85
2023-05-13T10:09:26.681Z,11.13
2023-05-13T10:11:55.363Z,11.38
2023-05-13T10:14:24.675Z,11.07
2023-05-13T10:16:52.824Z,11.27
2023-05-13T10:19:20.597Z,12.43
2023-05-13T10:21:48.928Z,12.90
2023-05-13T10:24:16.676Z,13.20
2023-05-13T10:26:44.885Z,12.65
2023-05-13T10:29:12.849Z,11.95
2023-05-13T10:31:42.690Z,12.73
2023-05-13T10:34:10.839Z,12.73
2023-05-13T10:37:02.465Z,12.85
2023-05-13T10:40:01.700Z,13.05
2023-05-13T10:42:41.388Z,13.07
2023-05-13T10:45:09.129Z,12.77
2023-05-13T10:47:38.446Z,12.63
2023-05-13T10:50:07.603Z,13.00
2023-05-13T10:52:47.914Z,13.68
2023-05-13T10:55:17.086Z,13.02
2023-05-13T10:58:04.684Z,13.73
2023-05-13T11:00:32.397Z,13.57
2023-05-13T11:03:13.987Z,13.40
2023-05-13T11:05:42.116Z,14.40
2023-05-13T11:08:09.369Z,13.13
2023-05-13T11:10:36.530Z,13.00
2023-05-13T11:13:22.903Z,14.20
2023-05-13T11:15:52.165Z,13.60
2023-05-13T11:18:29.180Z,13.02
2023-05-13T11:20:56.603Z,12.20
2023-05-13T11:23:23.864Z,12.23
2023-05-13T11:26:17.169Z,12.33
2023-05-13T11:28:58.973Z,13.45
2023-05-13T11:31:28.703Z,13.57
2023-05-13T11:34:11.748Z,14.30
2023-05-13T11:36:40.996Z,13.27
2023-05-13T11:39:11.481Z,13.97
2023-05-13T11:41:41.736Z,13.73
2023-05-13T11:44:10.735Z,12.95
2023-05-13T11:46:37.904Z,13.68
2023-05-13T11:49:07.259Z,14.60
2023-05-13T11:51:36.201Z,13.80
2023-05-13T11:54:03.886Z,16.75
2023-05-13T11:56:31.302Z,15.15
2023-05-13T11:59:14.865Z,12.95
2023-05-13T12:01:42.494Z,13.38
2023-05-13T12:04:09.807Z,12.97
2023-05-13T12:06:47.750Z,12.95
2023-05-13T12:09:15.229Z,13.75
2023-05-13T12:11:42.760Z,13.38
2023-05-13T12:14:10.126Z,14.85
2023-05-13T12:16:37.494Z,13.93
2023-05-13T12:19:06.211Z,14.70
2023-05-13T12:21:34.727Z,14.27
2023-05-13T12:24:17.026Z,14.27
2023-05-13T12:26:44.326Z,14.38
2023-05-13T12:29:12.150Z,14.20
2023-05-13T12:31:41.869Z,14.55
2023-05-13T12:34:09.365Z,14.93
2023-05-13T12:36:37.869Z,15.13
2023-05-13T12:39:07.835Z,14.95
2023-05-13T12:41:36.879Z,14.83
2023-05-13T12:44:05.247Z,15.15
2023-05-13T12:46:32.824Z,16.10
2023-05-13T12:49:01.326Z,15.95
2023-05-13T12:51:33.827Z,15.77
2023-05-13T12:54:01.904Z,15.77
2023-05-13T12:56:31.064Z,15.68
2023-05-13T12:58:58.311Z,15.05
2023-05-13T13:01:25.741Z,15.23
2023-05-13T13:03:53.144Z,15.93
2023-05-13T13:06:20.560Z,15.63
2023-05-13T13:08:47.806Z,15.90
2023-05-13T13:11:18.886Z,16.15
2023-05-13T13:13:49.685Z,16.15
2023-05-13T13:16:17.048Z,16.00
2023-05-13T13:18:45.073Z,16.27
2023-05-13T13:21:12.279Z,17.48
2023-05-13T13:23:39.839Z,16.52
2023-05-13T13:26:07.203Z,15.93
2023-05-13T13:28:34.496Z,16.63
2023-05-13T13:31:03.075Z,16.27
2023-05-13T13:33:30.228Z,16.17
2023-05-13T13:35:57.516Z,15.45
2023-05-13T13:38:24.751Z,16.48
2023-05-13T13:40:51.981Z,15.77
2023-05-13T13:43:19.604Z,14.93
2023-05-13T13:45:46.863Z,14.73
2023-05-13T13:48:15.672Z,15.93
2023-05-13T13:50:43.546Z,13.88
2023-05-13T13:53:12.051Z,15.32
2023-05-13T13:55:39.291Z,14.77
2023-05-13T13:58:06.546Z,15.05
2023-05-13T14:00:33.820Z,15.10
2023-05-13T14:03:02.783Z,15.43
2023-05-13T14:05:31.446Z,14.27
2023-05-13T14:07:58.808Z,13.27
2023-05-13T14:10:25.960Z,13.95
2023-05-13T14:12:53.724Z,14.05
2023-05-13T14:15:20.882Z,13.98
2023-05-13T14:17:48.131Z,14.93
2023-05-13T14:20:16.168Z,13.50
2023-05-13T14:22:44.799Z,13.95
2023-05-13T14:25:12.023Z,13.38
2023-05-13T14:27:39.181Z,14.20
2023-05-13T14:30:07.677Z,13.48
2023-05-13T14:32:34.992Z,12.83
2023-05-13T14:35:02.150Z,13.07
2023-05-13T14:37:29.299Z,13.48
2023-05-13T14:39:57.909Z,12.93
2023-05-13T14:42:25.098Z,13.43
2023-05-13T14:44:52.239Z,13.23
2023-05-13T14:47:19.552Z,13.55
2023-05-13T14:49:46.811Z,14.40
2023-05-13T14:52:13.952Z,14.20
2023-05-13T14:54:41.421Z,14.73
2023-05-13T14:57:10.158Z,14.17
2023-05-13T14:59:37.408Z,13.60
2023-05-13T15:02:05.073Z,13.48
2023-05-13T15:04:32.357Z,14.43
2023-05-13T15:07:01.938Z,13.75
2023-05-13T15:09:29.249Z,13.30
2023-05-13T15:11:56.538Z,14.68
2023-05-13T15:14:26.032Z,14.65
2023-05-13T15:16:53.526Z,14.20
2023-05-13T15:19:20.800Z,13.43
2023-05-13T15:21:48.009Z,14.23
2023-05-13T15:24:15.196Z,16.80
2023-05-13T15:26:42.343Z,15.32
2023-05-13T15:29:09.510Z,14.40
2023-05-13T15:31:38.097Z,13.45
2023-05-13T15:34:05.260Z,13.87
2023-05-13T15:36:33.827Z,14.07
2023-05-13T15:39:02.598Z,14.77
2023-05-13T15:41:29.940Z,14.57
2023-05-13T15:43:57.176Z,14.45
2023-05-13T15:46:25.348Z,13.80
2023-05-13T15:48:53.884Z,14.40
2023-05-13T15:51:21.343Z,13.13
2023-05-13T15:53:48.775Z,13.75
2023-05-13T15:56:15.984Z,14.35
2023-05-13T15:58:43.270Z,13.50
2023-05-13T16:01:10.572Z,14.43
2023-05-13T16:03:38.669Z,14.10
2023-05-13T16:06:07.485Z,14.80
2023-05-13T16:08:34.761Z,14.32
2023-05-13T16:11:02.157Z,14.33
2023-05-13T16:13:29.366Z,15.35
2023-05-13T16:15:56.851Z,16.08
2023-05-13T16:18:24.130Z,16.23
2023-05-13T16:20:52.463Z,15.48
2023-05-13T16:23:21.239Z,15.73
2023-05-13T16:25:48.466Z,15.90
2023-05-13T16:28:15.792Z,15.90
2023-05-13T16:30:44.423Z,16.27
2023-05-13T16:33:11.684Z,16.73
2023-05-13T16:35:38.927Z,14.33
2023-05-13T16:38:06.127Z,13.65
2023-05-13T16:40:34.811Z,13.50
2023-05-13T16:43:03.911Z,13.98
2023-05-13T16:45:31.380Z,14.55
2023-05-13T16:47:58.613Z,13.77
2023-05-13T16:50:26.260Z,13.20
2023-05-13T16:52:54.856Z,13.63
2023-05-13T16:55:22.653Z,14.70
2023-05-13T16:57:51.311Z,13.05
2023-05-13T17:00:18.981Z,13.23
2023-05-13T17:02:46.351Z,11.02
2023-05-13T17:05:13.605Z,11.63
2023-05-13T17:07:40.848Z,11.88
2023-05-13T17:10:09.009Z,11.18
2023-05-13T17:12:36.518Z,10.97
2023-05-13T17:15:06.797Z,11.43
2023-05-13T17:17:33.979Z,11.10
2023-05-13T17:20:01.481Z,10.75
2023-05-13T17:22:28.729Z,11.05
2023-05-13T17:24:56.131Z,10.40
2023-05-13T17:27:23.282Z,10.20
2023-05-13T17:29:50.601Z,10.35
2023-05-13T17:32:19.254Z,10.20
2023-05-13T17:34:46.476Z,9.80
2023-05-13T17:37:13.699Z,10.20
2023-05-13T17:39:40.846Z,9.15
2023-05-13T17:42:08.261Z,9.25
2023-05-13T17:44:35.477Z,9.20
2023-05-13T17:47:02.644Z,9.10
2023-05-13T17:49:31.237Z,8.17
2023-05-13T17:51:58.416Z,8.27
2023-05-13T17:54:25.629Z,8.20
2023-05-13T17:56:52.790Z,7.95
2023-05-13T17:59:19.969Z,8.20
2023-05-13T18:01:47.197Z,7.93
2023-05-13T18:04:14.441Z,8.52
2023-05-13T18:06:43.093Z,8.02
2023-05-13T18:09:10.412Z,7.95
2023-05-13T18:11:37.634Z,7.72
2023-05-13T18:14:04.847Z,8.40
2023-05-13T18:16:32.123Z,8.80
2023-05-13T18:18:59.478Z,8.88
2023-05-13T18:21:27.522Z,8.38
2023-05-13T18:23:56.261Z,8.80
2023-05-13T18:26:23.688Z,8.47
2023-05-13T18:28:51.100Z,8.10
2023-05-13T18:31:18.321Z,6.95
2023-05-13T18:33:45.685Z,7.03
2023-05-13T18:36:13.128Z,7.03
2023-05-13T18:38:40.350Z,7.43
2023-05-13T18:41:09.379Z,7.05
2023-05-13T18:43:36.655Z,6.85
2023-05-13T18:46:03.872Z,6.80
2023-05-13T18:48:31.106Z,6.90
2023-05-13T18:50:58.314Z,6.40
2023-05-13T18:53:25.635Z,6.03
2023-05-13T18:55:53.050Z,6.25
2023-05-13T18:58:21.713Z,6.80
2023-05-13T19:00:49.075Z,6.85
2023-05-13T19:03:16.529Z,6.87
2023-05-13T19:05:45.061Z,6.55
2023-05-13T19:08:12.365Z,6.18
2023-05-13T19:10:40.242Z,6.07
2023-05-13T19:13:07.954Z,6.45
2023-05-13T19:15:37.959Z,5.40
2023-05-13T19:18:05.499Z,5.82
2023-05-13T19:20:32.682Z,6.38
2023-05-13T19:22:59.865Z,6.15
2023-05-13T19:25:27.128Z,6.38
2023-05-13T19:27:54.435Z,6.10
2023-05-13T19:30:21.901Z,6.13
2023-05-13T19:32:50.636Z,6.30
2023-05-13T19:35:18.052Z,6.35
2023-05-13T19:37:45.272Z,6.00
2023-05-13T19:40:12.700Z,6.00
2023-05-13T19:42:39.870Z,6.15
2023-05-13T19:45:08.495Z,6.10
2023-05-13T19:47:35.817Z,6.35
2023-05-13T19:50:05.512Z,6.38
2023-05-13T19:52:33.722Z,5.43
2023-05-13T19:55:01.194Z,6.10
2023-05-13T19:57:30.049Z,5.68
2023-05-13T19:59:58.539Z,5.53
2023-05-13T20:02:25.987Z,5.70
2023-05-13T20:04:53.182Z,5.63
2023-05-13T20:07:21.766Z,6.28
2023-05-13T20:09:49.026Z,5.95
2023-05-13T20:12:16.348Z,5.72
2023-05-13T20:14:44.572Z,5.60
2023-05-13T20:17:19.420Z,5.40
2023-05-13T20:19:50.178Z,5.57
2023-05-13T20:22:18.588Z,5.53
2023-05-13T20:24:48.080Z,5.53
2023-05-13T20:27:16.096Z,5.90
2023-05-13T20:29:44.557Z,5.20
2023-05-13T20:32:12.010Z,6.35
2023-05-13T20:34:39.196Z,5.75
2023-05-13T20:37:06.938Z,5.53
2023-05-13T20:39:34.127Z,5.38
2023-05-13T20:42:02.773Z,5.70
2023-05-13T20:44:30.043Z,5.53
2023-05-13T20:46:57.500Z,5.93
2023-05-13T20:49:24.640Z,5.95
2023-05-13T20:51:52.009Z,6.50
2023-05-13T20:54:19.259Z,6.40
2023-05-13T20:56:46.431Z,6.00
2023-05-13T20:59:15.061Z,6.47
2023-05-13T21:01:47.416Z,6.22
2023-05-13T21:04:15.126Z,6.80
2023-05-13T21:06:42.444Z,5.67
2023-05-13T21:09:09.659Z,6.13
2023-05-13T21:11:36.903Z,6.38
2023-05-13T21:14:04.099Z,5.80
2023-05-13T21:16:32.767Z,6.30
2023-05-13T21:18:59.977Z,6.27
2023-05-13T21:21:27.201Z,5.60
2023-05-13T21:23:54.674Z,6.10
2023-05-13T21:26:22.323Z,5.40
2023-05-13T21:28:49.498Z,5.82
2023-05-13T21:31:16.830Z,5.80
2023-05-13T21:33:45.419Z,5.80
2023-05-13T21:36:12.568Z,5.43
2023-05-13T21:38:39.932Z,5.63
2023-05-13T21:41:07.089Z,5.80
2023-05-13T21:43:34.368Z,5.87
2023-05-13T21:46:02.733Z,5.95
2023-05-13T21:48:30.043Z,6.50
2023-05-13T21:50:58.636Z,5.78
2023-05-13T21:53:25.984Z,6.38
2023-05-13T21:55:56.038Z,6.27
2023-05-13T21:58:23.703Z,6.03
2023-05-13T22:00:51.906Z,6.43
2023-05-13T22:03:19.146Z,6.07
2023-05-13T22:05:46.446Z,5.95
2023-05-13T22:08:15.099Z,6.10
2023-05-13T22:10:42.277Z,5.85
2023-05-13T22:13:09.481Z,6.68
2023-05-13T22:15:36.677Z,6.00
2023-05-13T22:18:04.228Z,6.57
2023-05-13T22:20:31.561Z,6.20
2023-05-13T22:22:58.876Z,6.45
2023-05-13T22:25:27.439Z,6.80
2023-05-13T22:27:54.581Z,6.90
2023-05-13T22:30:22.257Z,6.68
2023-05-13T22:32:50.978Z,6.63
2023-05-13T22:35:18.288Z,6.28
2023-05-13T22:37:45.559Z,7.25
2023-05-13T22:40:13.960Z,6.28
2023-05-13T22:42:42.672Z,6.63
2023-05-13T22:45:11.283Z,6.57
2023-05-13T22:47:38.719Z,6.72
2023-05-13T22:50:07.321Z,7.55
2023-05-13T22:52:35.490Z,6.43
2023-05-13T22:55:03.420Z,6.90
2023-05-13T22:57:30.694Z,6.97
2023-05-13T22:59:59.283Z,6.57
2023-05-13T23:02:26.521Z,7.13
2023-05-13T23:04:53.928Z,6.80
2023-05-13T23:07:21.277Z,6.60
2023-05-13T23:09:48.458Z,6.67
2023-05-13T23:12:15.996Z,6.97
2023-05-13T23:14:43.199Z,6.60
2023-05-13T23:17:11.952Z,7.43
2023-05-13T23:19:39.182Z,6.97
2023-05-13T23:22:06.428Z,7.43
2023-05-13T23:24:33.612Z,7.10
2023-05-13T23:27:00.804Z,6.70
2023-05-13T23:29:28.086Z,7.00
2023-05-13T23:31:55.544Z,7.15
2023-05-13T23:34:24.464Z,7.23
2023-05-13T23:36:51.769Z,6.90
2023-05-13T23:39:18.982Z,7.28
2023-05-13T23:41:46.203Z,6.78
2023-05-13T23:44:13.407Z,7.10
2023-05-13T23:46:40.656Z,7.43
2023-05-13T23:49:07.848Z,7.40
2023-05-13T23:51:36.585Z,7.38
2023-05-13T23:54:03.939Z,7.40
2023-05-13T23:56:31.100Z,7.60
2023-05-13T23:58:58.301Z,7.30
